N08 weather

Flanagan Field
Farmville, North Carolina, United States

Public forecast

Using degrees Fahrenheit for public forecast. Weather courtesy of forecast.io.

Closest aviation weather report (METAR) to Flanagan Field

Closest report is Pitt Greenville Airport, 9.8 nm (18.1 km) ENE. Retrieved 2019/12/16 09:35 UTC (24 minutes ago):

KPGV 160935Z AUTO 00000KT 5SM BR CLR 03/02 A3022 RMK AO2

Closest aviation forecast (TAF) to Flanagan Field

Closest forecast is Pitt Greenville Airport, 9.8 nm (18.1 km) ENE. Retrieved 2019/12/16 06:22 UTC (4 hours ago):

TAF KPGV 160520Z 1606/1706 00000KT P6SM FEW100 TEMPO 1610/1613 5SM BR FM161800 21009G14KT P6SM SKC FM170300 19008KT P6SM OVC025 AMD LTD TO CLD VIS AND WIND